Time;durP1;ratioP1;P1;durP2;ratioP2;P2;SDS_P1;SDS_P2;PMS_P1;PMS_P2;Temp;Humidity;BMP_temperature;BMP_pressure;BME280_temperature;BME280_humidity;BME280_pressure;Samples;Min_cycle;Max_cycle;Signal;HPM_P1;HPM_P2
2023/06/08 00:00:24;;;;;;;18.65;9.40;;;15.40;99.90;;;;;;5114915;28;20016;-84
2023/06/08 00:02:49;;;;;;;18.38;9.73;;;15.40;99.90;;;;;;5115238;28;20026;-84
2023/06/08 00:05:16;;;;;;;16.15;9.02;;;14.90;99.90;;;;;;5115106;28;20055;-84
2023/06/08 00:07:42;;;;;;;13.68;7.82;;;15.30;99.90;;;;;;5114648;28;20031;-84
2023/06/08 00:10:10;;;;;;;14.65;8.48;;;15.30;99.90;;;;;;5115220;28;20076;-84
2023/06/08 00:12:36;;;;;;;22.42;8.43;;;15.30;99.90;;;;;;5115073;28;20048;-84
2023/06/08 00:15:03;;;;;;;26.90;9.75;;;15.30;99.90;;;;;;5114518;28;20043;-84
2023/06/08 00:17:31;;;;;;;15.65;8.45;;;15.20;99.90;;;;;;5114922;28;20104;-84
2023/06/08 00:19:56;;;;;;;15.50;9.00;;;15.10;99.90;;;;;;5114875;28;20378;-84
2023/06/08 00:22:22;;;;;;;15.57;9.68;;;15.10;99.90;;;;;;5114581;28;20107;-83
2023/06/08 00:24:48;;;;;;;19.05;9.55;;;15.10;99.90;;;;;;5113746;28;20037;-84
2023/06/08 00:27:14;;;;;;;20.35;9.10;;;14.50;99.90;;;;;;5115017;28;20032;-83
2023/06/08 00:29:39;;;;;;;18.08;9.18;;;15.00;99.90;;;;;;5114283;28;20019;-84
2023/06/08 00:32:05;;;;;;;24.80;10.43;;;15.00;99.90;;;;;;5114677;28;20502;-84
2023/06/08 00:34:31;;;;;;;15.68;9.23;;;15.10;99.90;;;;;;5114866;28;20111;-84
2023/06/08 00:36:56;;;;;;;23.15;9.85;;;15.00;99.90;;;;;;5113973;28;20027;-84
2023/06/08 00:39:23;;;;;;;17.75;8.68;;;15.10;99.90;;;;;;5114444;28;20030;-84
2023/06/08 00:41:48;;;;;;;23.63;9.20;;;15.00;99.90;;;;;;5114552;28;20039;-84
2023/06/08 00:44:14;;;;;;;18.15;9.48;;;15.10;99.90;;;;;;5113466;28;20046;-84
2023/06/08 00:46:39;;;;;;;24.02;10.30;;;15.00;99.90;;;;;;5114633;28;20026;-83
2023/06/08 00:49:11;;;;;;;21.90;9.40;;;14.00;99.90;;;;;;5114034;28;20016;-83
2023/06/08 00:51:41;;;;;;;18.45;9.48;;;15.00;99.90;;;;;;5114501;28;20046;-83
2023/06/08 00:54:10;;;;;;;14.13;8.20;;;15.20;99.90;;;;;;5114279;28;20540;-83
2023/06/08 00:56:38;;;;;;;19.55;9.65;;;14.90;99.90;;;;;;5113852;28;20265;-83
2023/06/08 00:59:05;;;;;;;24.58;9.45;;;14.80;99.90;;;;;;5114428;28;20468;-83
2023/06/08 01:01:31;;;;;;;21.83;10.02;;;14.80;99.90;;;;;;5114372;28;20036;-83
2023/06/08 01:04:05;;;;;;;23.38;9.45;;;13.80;99.90;;;;;;5113387;28;20039;-84
2023/06/08 01:06:44;;;;;;;15.20;8.63;;;14.70;99.90;;;;;;5113975;28;20039;-83
2023/06/08 01:09:22;;;;;;;18.65;9.50;;;14.70;99.90;;;;;;5114171;28;20030;-84
2023/06/08 01:11:53;;;;;;;14.38;9.73;;;14.70;99.90;;;;;;5113127;28;20030;-83
2023/06/08 01:14:35;;;;;;;18.42;9.85;;;14.60;99.90;;;;;;5114027;28;20103;-83
2023/06/08 01:17:02;;;;;;;17.77;9.23;;;14.60;99.90;;;;;;5113811;28;20364;-83
2023/06/08 01:20:18;;;;;;;29.40;9.98;;;14.50;99.90;;;;;;5113327;28;20386;-84
2023/06/08 01:23:09;;;;;;;16.95;10.00;;;14.50;99.90;;;;;;5079255;28;20039;-83
2023/06/08 01:25:36;;;;;;;20.08;10.27;;;14.50;99.90;;;;;;5113189;28;20089;-83
2023/06/08 01:28:12;;;;;;;23.65;10.07;;;14.20;99.90;;;;;;5113848;28;20023;-83
2023/06/08 01:30:39;;;;;;;19.80;9.65;;;14.50;99.90;;;;;;5113580;28;20036;-83
2023/06/08 01:33:05;;;;;;;20.80;10.27;;;14.50;99.90;;;;;;5112840;28;20099;-84
2023/06/08 01:35:31;;;;;;;20.95;9.77;;;14.50;99.90;;;;;;5112987;28;20059;-84
2023/06/08 01:38:05;;;;;;;21.77;9.45;;;14.70;99.90;;;;;;5113199;28;20498;-83
2023/06/08 01:40:35;;;;;;;26.65;11.30;;;14.70;99.90;;;;;;5113021;28;20084;-83
2023/06/08 01:43:05;;;;;;;24.40;10.27;;;14.40;99.90;;;;;;5113391;28;20103;-83
2023/06/08 01:45:35;;;;;;;14.20;9.15;;;14.30;99.90;;;;;;5112659;28;20443;-83
2023/06/08 01:48:03;;;;;;;20.45;10.52;;;14.30;99.90;;;;;;5113335;28;20471;-84
2023/06/08 01:50:31;;;;;;;19.13;11.00;;;14.20;99.90;;;;;;5113332;28;20406;-83
2023/06/08 01:52:58;;;;;;;22.00;9.82;;;14.10;99.90;;;;;;5112511;28;20027;-83
2023/06/08 01:55:24;;;;;;;22.08;10.20;;;14.10;99.90;;;;;;5113422;28;20111;-83
2023/06/08 01:57:50;;;;;;;26.15;10.70;;;13.80;99.90;;;;;;5112858;28;20051;-84
2023/06/08 02:00:17;;;;;;;16.17;9.65;;;14.00;99.90;;;;;;5112269;28;20050;-83
2023/06/08 02:02:44;;;;;;;14.80;9.65;;;14.00;99.90;;;;;;5113111;28;20364;-83
2023/06/08 02:05:11;;;;;;;17.15;10.07;;;13.90;99.90;;;;;;5112925;28;20041;-84
2023/06/08 02:07:38;;;;;;;16.92;9.50;;;14.50;99.90;;;;;;5112761;28;20016;-83
2023/06/08 02:10:05;;;;;;;15.63;9.50;;;13.90;99.90;;;;;;5113210;28;20034;-83
2023/06/08 02:12:31;;;;;;;16.70;9.13;;;13.90;99.90;;;;;;5112935;28;20054;-83
2023/06/08 02:14:56;;;;;;;20.60;10.07;;;12.80;99.90;;;;;;5112218;28;20059;-83
2023/06/08 02:17:27;;;;;;;20.70;9.52;;;13.80;99.90;;;;;;5113085;28;20439;-83
2023/06/08 02:19:56;;;;;;;20.80;10.15;;;14.00;99.90;;;;;;5113264;28;20383;-84
2023/06/08 02:22:22;;;;;;;21.13;9.88;;;13.90;99.90;;;;;;5112402;28;20395;-84
2023/06/08 02:24:48;;;;;;;21.42;9.98;;;14.00;99.90;;;;;;5112859;28;20483;-83
2023/06/08 02:27:15;;;;;;;26.35;9.77;;;14.00;99.90;;;;;;5112942;28;20020;-83
2023/06/08 02:29:41;;;;;;;19.15;10.65;;;13.90;99.90;;;;;;5112413;28;20024;-84
2023/06/08 02:32:07;;;;;;;21.13;10.32;;;13.80;99.90;;;;;;5112847;28;20015;-83
2023/06/08 02:34:37;;;;;;;16.10;9.68;;;13.70;99.90;;;;;;5112380;28;20028;-85
2023/06/08 02:37:03;;;;;;;21.02;10.15;;;13.70;99.90;;;;;;5113142;28;20019;-85
2023/06/08 02:39:29;;;;;;;25.02;10.25;;;13.70;99.90;;;;;;5112813;28;20458;-83
2023/06/08 02:41:54;;;;;;;19.13;9.82;;;13.60;99.90;;;;;;5111945;28;20031;-83
2023/06/08 02:44:20;;;;;;;15.32;10.57;;;13.70;99.90;;;;;;5112592;28;20047;-83
2023/06/08 02:46:46;;;;;;;17.35;9.45;;;13.70;99.90;;;;;;5112642;28;20467;-85
2023/06/08 02:49:12;;;;;;;24.00;10.75;;;13.70;99.90;;;;;;5115736;28;20031;-84
2023/06/08 02:51:37;;;;;;;20.73;10.65;;;13.60;99.90;;;;;;5116758;28;20543;-84
2023/06/08 02:54:03;;;;;;;18.73;10.23;;;14.50;99.90;;;;;;5116804;28;20478;-84
2023/06/08 02:56:29;;;;;;;17.30;11.43;;;13.70;99.90;;;;;;5115997;28;20058;-85
2023/06/08 02:58:54;;;;;;;21.88;10.25;;;14.80;99.90;;;;;;5116504;28;20122;-84
2023/06/08 03:01:20;;;;;;;18.95;11.20;;;13.60;99.90;;;;;;5116252;28;20035;-84
2023/06/08 03:03:48;;;;;;;15.45;11.02;;;13.60;99.90;;;;;;5115841;28;20026;-84
2023/06/08 03:06:17;;;;;;;20.67;11.05;;;13.40;99.90;;;;;;5116099;28;20040;-84
2023/06/08 03:08:46;;;;;;;16.90;11.07;;;13.40;99.90;;;;;;5116431;28;20048;-84
2023/06/08 03:11:12;;;;;;;20.67;11.32;;;13.30;99.90;;;;;;5115443;28;20451;-83
2023/06/08 03:13:38;;;;;;;18.05;11.43;;;13.30;99.90;;;;;;5116248;28;20397;-84
2023/06/08 03:16:04;;;;;;;20.95;11.43;;;13.30;99.90;;;;;;5116142;28;20027;-83
2023/06/08 03:18:29;;;;;;;20.15;11.70;;;13.30;99.90;;;;;;5115659;28;20031;-83
2023/06/08 03:20:56;;;;;;;18.02;11.07;;;13.20;99.90;;;;;;5116280;28;20415;-84
2023/06/08 03:23:22;;;;;;;22.80;11.85;;;13.20;99.90;;;;;;5116289;28;20031;-84
2023/06/08 03:25:49;;;;;;;18.42;10.93;;;13.20;99.90;;;;;;5115263;28;20039;-84
2023/06/08 03:28:18;;;;;;;15.00;10.68;;;13.30;99.90;;;;;;5116012;27;20125;-83
2023/06/08 03:30:44;;;;;;;22.98;12.13;;;13.20;99.90;;;;;;5116163;28;20024;-84
2023/06/08 03:33:10;;;;;;;19.08;11.25;;;13.20;99.90;;;;;;5115436;28;20028;-84
2023/06/08 03:35:36;;;;;;;19.05;11.38;;;13.30;99.90;;;;;;5115757;28;20028;-84
2023/06/08 03:38:02;;;;;;;17.33;11.52;;;13.20;99.90;;;;;;5115045;28;20694;-84
2023/06/08 03:40:27;;;;;;;16.00;12.13;;;13.10;99.90;;;;;;5115804;28;20031;-84
2023/06/08 03:42:53;;;;;;;19.20;12.32;;;13.10;99.90;;;;;;5115707;28;20030;-84
2023/06/08 03:45:19;;;;;;;23.88;13.10;;;12.70;99.90;;;;;;5114683;28;20139;-84
2023/06/08 03:47:44;;;;;;;18.13;12.07;;;13.20;99.90;;;;;;5115858;28;20076;-84
2023/06/08 03:50:13;;;;;;;18.20;11.25;;;13.20;99.90;;;;;;5115650;28;20023;-84
2023/06/08 03:52:39;;;;;;;16.58;11.23;;;13.30;99.90;;;;;;5114645;28;20076;-84
2023/06/08 03:55:08;;;;;;;17.17;12.40;;;13.40;99.90;;;;;;5115352;28;20024;-84
2023/06/08 03:57:34;;;;;;;17.85;12.43;;;13.40;99.90;;;;;;5115367;28;20073;-84
2023/06/08 04:00:00;;;;;;;18.25;12.85;;;12.40;99.90;;;;;;5114384;28;20530;-84
2023/06/08 04:02:25;;;;;;;19.30;12.98;;;13.30;99.90;;;;;;5115424;28;20107;-83
2023/06/08 04:04:53;;;;;;;19.48;12.02;;;13.20;99.90;;;;;;5115298;28;20039;-83
2023/06/08 04:07:20;;;;;;;22.80;12.20;;;13.20;99.90;;;;;;5114517;28;20020;-84
2023/06/08 04:09:46;;;;;;;20.65;12.20;;;12.90;99.90;;;;;;5115312;28;20103;-84
2023/06/08 04:12:12;;;;;;;17.58;11.45;;;13.30;99.90;;;;;;5115076;28;20073;-84
2023/06/08 04:14:37;;;;;;;21.63;13.02;;;13.30;99.90;;;;;;5114295;28;20027;-84
2023/06/08 04:17:03;;;;;;;16.67;12.15;;;13.30;99.90;;;;;;5114930;28;20076;-84
2023/06/08 04:19:29;;;;;;;21.02;12.55;;;13.30;99.90;;;;;;5115160;28;20032;-84
2023/06/08 04:21:56;;;;;;;21.17;12.88;;;13.30;99.90;;;;;;5114224;28;20022;-84
2023/06/08 04:24:28;;;;;;;23.35;12.60;;;13.30;99.90;;;;;;5114944;28;20046;-84
2023/06/08 04:26:55;;;;;;;20.67;12.68;;;13.30;99.90;;;;;;5114847;28;20043;-84
2023/06/08 04:29:21;;;;;;;19.17;11.93;;;13.30;99.90;;;;;;5114385;28;20050;-84
2023/06/08 04:31:47;;;;;;;22.08;13.02;;;13.50;99.90;;;;;;5114925;28;20460;-84
2023/06/08 04:34:12;;;;;;;19.35;13.07;;;13.50;99.90;;;;;;5114037;28;20467;-84
2023/06/08 04:36:42;;;;;;;24.70;12.77;;;13.50;99.90;;;;;;5114752;28;20434;-84
2023/06/08 04:39:08;;;;;;;22.70;12.75;;;12.70;99.90;;;;;;5114411;28;20020;-84
2023/06/08 04:41:34;;;;;;;21.60;12.60;;;13.70;99.90;;;;;;5114144;28;20024;-84
2023/06/08 04:44:01;;;;;;;26.02;14.10;;;13.50;99.90;;;;;;5114498;28;20050;-84
2023/06/08 04:46:28;;;;;;;19.98;12.45;;;13.60;99.90;;;;;;5114596;28;20036;-84
2023/06/08 04:48:55;;;;;;;22.80;13.07;;;12.80;99.90;;;;;;5114075;28;20471;-84
2023/06/08 04:51:23;;;;;;;15.90;12.82;;;13.50;99.90;;;;;;5114343;28;20106;-84
2023/06/08 04:53:51;;;;;;;24.80;13.02;;;13.50;99.90;;;;;;5114307;28;20022;-84
2023/06/08 04:56:18;;;;;;;17.90;12.75;;;14.20;99.90;;;;;;5113803;28;20087;-84
2023/06/08 04:58:45;;;;;;;21.73;12.88;;;13.50;99.90;;;;;;5114435;28;20388;-84
2023/06/08 05:01:11;;;;;;;17.77;13.65;;;14.10;99.90;;;;;;5114333;28;20016;-84
2023/06/08 05:03:37;;;;;;;20.90;13.55;;;13.30;99.90;;;;;;5113355;28;20034;-84
2023/06/08 05:06:02;;;;;;;24.92;13.90;;;13.20;99.90;;;;;;5114013;28;20027;-84
2023/06/08 05:08:28;;;;;;;30.02;14.70;;;13.20;99.90;;;;;;5113917;28;20025;-84
2023/06/08 05:10:53;;;;;;;18.20;12.93;;;13.90;99.90;;;;;;5112854;28;20494;-84
2023/06/08 05:13:19;;;;;;;20.85;13.60;;;13.30;99.90;;;;;;5113673;28;20490;-84
2023/06/08 05:15:44;;;;;;;20.45;14.48;;;13.30;99.90;;;;;;5113912;28;20023;-84
2023/06/08 05:18:10;;;;;;;20.35;14.30;;;13.30;99.90;;;;;;5112893;28;20417;-84
2023/06/08 05:20:36;;;;;;;24.35;12.98;;;13.40;99.90;;;;;;5113785;28;20069;-84
2023/06/08 05:23:01;;;;;;;22.30;14.05;;;13.40;99.90;;;;;;5113583;28;20023;-84
2023/06/08 05:25:29;;;;;;;20.48;13.25;;;13.30;99.90;;;;;;5113076;28;20482;-84
2023/06/08 05:27:55;;;;;;;22.02;13.63;;;13.30;99.90;;;;;;5113833;28;20080;-84
2023/06/08 05:30:21;;;;;;;23.48;14.32;;;13.30;99.90;;;;;;5113703;28;20467;-84
2023/06/08 05:32:46;;;;;;;23.63;13.35;;;13.30;99.90;;;;;;5113267;28;20046;-84
2023/06/08 05:35:15;;;;;;;23.90;13.55;;;13.30;99.90;;;;;;5113394;28;20069;-84
2023/06/08 05:37:40;;;;;;;26.88;15.40;;;13.30;99.90;;;;;;5112711;28;20489;-84
2023/06/08 05:40:07;;;;;;;23.90;15.00;;;13.30;99.90;;;;;;5113721;28;20031;-84
2023/06/08 05:42:33;;;;;;;24.23;14.68;;;13.30;99.90;;;;;;5113010;28;20030;-84
2023/06/08 05:44:58;;;;;;;21.27;14.88;;;13.40;99.90;;;;;;5112204;28;20043;-84
2023/06/08 05:47:24;;;;;;;27.13;14.40;;;12.50;99.90;;;;;;5113282;28;20016;-84
2023/06/08 05:49:49;;;;;;;25.17;15.70;;;13.40;99.90;;;;;;5113117;28;20035;-84
2023/06/08 05:52:15;;;;;;;18.65;13.63;;;13.40;99.90;;;;;;5112664;28;20027;-84
2023/06/08 05:54:40;;;;;;;16.08;12.45;;;13.50;99.90;;;;;;5113422;28;20020;-84
2023/06/08 05:57:06;;;;;;;23.60;13.75;;;13.50;99.90;;;;;;5113589;28;20034;-84
2023/06/08 05:59:32;;;;;;;19.67;13.15;;;13.00;99.90;;;;;;5112649;28;20426;-84
2023/06/08 06:01:57;;;;;;;20.92;13.70;;;13.60;99.90;;;;;;5113250;28;20035;-84
2023/06/08 06:04:23;;;;;;;23.83;13.65;;;13.60;99.90;;;;;;5113240;28;20023;-84
2023/06/08 06:06:48;;;;;;;23.98;12.80;;;13.70;99.90;;;;;;5112368;28;20024;-84
2023/06/08 06:09:14;;;;;;;18.25;12.55;;;13.00;99.90;;;;;;5113056;28;20030;-84
2023/06/08 06:11:39;;;;;;;31.75;13.25;;;12.80;99.90;;;;;;5113227;28;20020;-84
2023/06/08 06:14:05;;;;;;;19.83;13.38;;;13.50;99.90;;;;;;5112494;28;20488;-84
2023/06/08 06:16:30;;;;;;;22.60;13.38;;;13.80;99.90;;;;;;5113146;28;20209;-84
2023/06/08 06:18:57;;;;;;;24.10;13.10;;;13.80;99.90;;;;;;5113167;28;20062;-85
2023/06/08 06:21:23;;;;;;;18.55;12.90;;;14.10;99.90;;;;;;5113077;28;20335;-85
2023/06/08 06:23:48;;;;;;;19.40;13.13;;;13.90;99.90;;;;;;5117421;28;20072;-85
2023/06/08 06:26:14;;;;;;;24.77;12.52;;;14.00;99.90;;;;;;5118577;28;20054;-85
2023/06/08 06:28:40;;;;;;;21.52;12.57;;;14.10;99.90;;;;;;5122492;28;20489;-85
2023/06/08 06:31:06;;;;;;;22.08;12.18;;;14.20;99.90;;;;;;5117664;28;20035;-85
2023/06/08 06:33:31;;;;;;;20.88;12.77;;;14.10;99.90;;;;;;5117150;28;20060;-85
2023/06/08 06:35:57;;;;;;;21.60;12.48;;;15.10;99.90;;;;;;5116161;28;20023;-85
2023/06/08 06:38:23;;;;;;;20.83;12.85;;;14.20;99.90;;;;;;5117083;28;20027;-85
2023/06/08 06:40:52;;;;;;;22.35;12.90;;;14.20;99.90;;;;;;5116720;28;20019;-85
2023/06/08 06:43:26;;;;;;;16.65;12.38;;;14.30;99.90;;;;;;5117041;28;20039;-85
2023/06/08 06:45:52;;;;;;;20.42;12.73;;;14.40;99.90;;;;;;5116807;28;20043;-85
2023/06/08 06:48:21;;;;;;;21.27;11.70;;;14.50;99.90;;;;;;5116002;28;20024;-85
2023/06/08 06:50:47;;;;;;;22.10;12.38;;;14.20;99.90;;;;;;5116994;28;20027;-85
2023/06/08 06:53:13;;;;;;;16.77;11.73;;;14.50;99.90;;;;;;5116897;28;20023;-85
2023/06/08 06:55:39;;;;;;;18.65;12.15;;;14.60;99.90;;;;;;5115947;28;20027;-85
2023/06/08 06:58:05;;;;;;;18.88;11.70;;;13.60;99.90;;;;;;5116660;28;20020;-85
2023/06/08 07:00:36;;;;;;;20.27;11.75;;;13.90;99.90;;;;;;5116641;28;20031;-84
2023/06/08 07:03:06;;;;;;;13.90;11.60;;;14.60;99.90;;;;;;5115765;28;20023;-84
2023/06/08 07:05:32;;;;;;;15.98;11.13;;;14.60;99.90;;;;;;5116525;28;20073;-84
2023/06/08 07:07:58;;;;;;;18.60;12.25;;;15.90;99.90;;;;;;5116367;28;20023;-84
2023/06/08 07:10:23;;;;;;;18.52;11.05;;;14.80;99.90;;;;;;5115797;28;20035;-85
2023/06/08 07:12:49;;;;;;;16.95;11.15;;;14.60;99.90;;;;;;5116481;28;20012;-84
2023/06/08 07:15:15;;;;;;;42.95;13.35;;;14.60;99.90;;;;;;5116198;28;20495;-85
2023/06/08 07:17:42;;;;;;;21.65;12.63;;;14.80;99.90;;;;;;5115521;28;20479;-84
2023/06/08 07:20:08;;;;;;;22.92;12.20;;;13.80;99.90;;;;;;5116534;28;20034;-85
2023/06/08 07:22:34;;;;;;;18.30;10.82;;;14.70;99.90;;;;;;5116240;28;20024;-83
2023/06/08 07:24:59;;;;;;;16.73;11.68;;;14.80;99.90;;;;;;5115830;28;20494;-84
2023/06/08 07:27:25;;;;;;;21.88;12.25;;;14.80;99.90;;;;;;5115938;28;20027;-84
2023/06/08 07:29:52;;;;;;;20.77;11.68;;;14.90;99.90;;;;;;5115875;28;20051;-84
2023/06/08 07:32:17;;;;;;;18.33;11.38;;;14.90;99.90;;;;;;5115189;28;20548;-84
2023/06/08 07:34:43;;;;;;;14.50;11.70;;;15.90;99.90;;;;;;5115167;28;20035;-84
2023/06/08 07:37:09;;;;;;;16.65;11.25;;;15.00;99.90;;;;;;5115262;28;20027;-84
2023/06/08 07:39:34;;;;;;;24.63;12.45;;;14.20;99.90;;;;;;5115818;28;20487;-85
2023/06/08 07:42:00;;;;;;;16.50;10.98;;;15.20;99.90;;;;;;5115538;28;20475;-85
2023/06/08 07:44:25;;;;;;;21.33;11.57;;;15.00;99.90;;;;;;5114661;28;20126;-85
2023/06/08 07:46:51;;;;;;;21.00;11.43;;;16.20;99.90;;;;;;5115423;28;20032;-85
2023/06/08 07:49:16;;;;;;;14.57;10.90;;;15.30;99.90;;;;;;5116379;28;20020;-84
2023/06/08 07:51:43;;;;;;;19.95;12.20;;;15.40;99.90;;;;;;5115325;28;20035;-85
2023/06/08 07:54:09;;;;;;;22.20;11.70;;;14.60;99.90;;;;;;5114219;28;20076;-85
2023/06/08 07:56:35;;;;;;;16.90;10.40;;;15.40;99.90;;;;;;5115494;28;20095;-85
2023/06/08 07:59:00;;;;;;;17.20;10.48;;;16.40;99.90;;;;;;5114765;28;20019;-85
2023/06/08 08:01:26;;;;;;;16.35;10.25;;;15.60;99.90;;;;;;5115063;28;20030;-85
2023/06/08 08:03:52;;;;;;;22.63;10.23;;;15.40;99.90;;;;;;5115575;28;20039;-85
2023/06/08 08:06:17;;;;;;;16.75;9.07;;;16.50;99.90;;;;;;5114578;28;20042;-85
2023/06/08 08:08:43;;;;;;;20.17;9.95;;;15.40;99.90;;;;;;5115249;28;20020;-85
2023/06/08 08:11:09;;;;;;;15.10;9.25;;;15.10;99.90;;;;;;5115062;28;20471;-85
2023/06/08 08:13:34;;;;;;;19.95;10.50;;;15.00;99.90;;;;;;5114844;28;20084;-85
2023/06/08 08:16:00;;;;;;;15.98;9.73;;;15.90;99.90;;;;;;5115066;28;20020;-85
2023/06/08 08:18:26;;;;;;;37.92;10.32;;;16.00;99.90;;;;;;5115674;28;20097;-84
2023/06/08 08:20:51;;;;;;;16.23;9.98;;;15.00;99.90;;;;;;5113999;28;20012;-85
2023/06/08 08:23:17;;;;;;;14.20;10.65;;;16.00;99.90;;;;;;5115306;28;20026;-85
2023/06/08 08:25:43;;;;;;;19.70;10.30;;;16.40;99.90;;;;;;5115468;28;20031;-85
2023/06/08 08:28:08;;;;;;;20.42;9.65;;;15.70;99.90;;;;;;5114231;28;20348;-85
2023/06/08 08:30:35;;;;;;;13.95;9.68;;;16.10;99.90;;;;;;5115020;28;20051;-85
2023/06/08 08:33:01;;;;;;;24.63;10.77;;;16.10;99.90;;;;;;5115189;28;20543;-85
2023/06/08 08:35:29;;;;;;;21.85;10.40;;;15.50;99.90;;;;;;5115182;28;20088;-85
2023/06/08 08:37:56;;;;;;;14.30;9.15;;;16.60;99.90;;;;;;5114702;28;20382;-85
2023/06/08 08:40:23;;;;;;;14.05;10.20;;;15.70;99.90;;;;;;5114462;28;20107;-85
2023/06/08 08:43:11;;;;;;;17.75;9.73;;;17.20;99.90;;;;;;5114576;27;20043;-85
2023/06/08 08:45:39;;;;;;;20.38;10.65;;;16.40;99.90;;;;;;5113358;28;20047;-85
2023/06/08 08:48:07;;;;;;;20.48;10.00;;;16.40;99.90;;;;;;5113860;27;20092;-84
2023/06/08 08:50:38;;;;;;;15.27;9.30;;;16.60;99.90;;;;;;5114466;28;20031;-84
2023/06/08 08:53:06;;;;;;;13.18;8.55;;;16.50;99.90;;;;;;5114382;28;20020;-85
2023/06/08 08:55:36;;;;;;;24.48;9.48;;;16.70;99.90;;;;;;5113451;28;20027;-85
2023/06/08 08:58:03;;;;;;;17.80;10.05;;;16.80;99.90;;;;;;5114515;28;20039;-84
2023/06/08 09:00:32;;;;;;;18.80;11.35;;;16.30;99.90;;;;;;5114334;28;20032;-84
2023/06/08 09:03:01;;;;;;;15.80;9.88;;;16.90;99.90;;;;;;5113531;28;20066;-85
2023/06/08 09:05:27;;;;;;;16.08;9.70;;;17.00;99.90;;;;;;5114123;28;20055;-84
2023/06/08 09:07:54;;;;;;;16.80;9.23;;;17.10;99.90;;;;;;5114053;28;20464;-85
2023/06/08 09:10:26;;;;;;;13.73;8.52;;;17.10;99.90;;;;;;5114430;28;20027;-85
2023/06/08 09:12:54;;;;;;;18.30;10.07;;;17.20;99.90;;;;;;5114096;28;20456;-85
2023/06/08 09:15:30;;;;;;;17.95;9.60;;;17.20;99.90;;;;;;5114042;28;20028;-85
2023/06/08 09:17:57;;;;;;;18.80;10.38;;;16.90;99.90;;;;;;5113839;28;20019;-85
2023/06/08 09:20:28;;;;;;;13.73;8.82;;;17.90;99.90;;;;;;5113748;28;20369;-84
2023/06/08 09:22:53;;;;;;;14.10;10.00;;;17.90;99.90;;;;;;5113246;28;20028;-84
2023/06/08 09:25:36;;;;;;;13.05;9.50;;;17.50;99.90;;;;;;5113974;28;20031;-84
2023/06/08 09:28:22;;;;;;;13.55;9.10;;;17.60;99.90;;;;;;5113661;28;20044;-84
2023/06/08 09:30:48;;;;;;;12.27;8.55;;;17.70;99.90;;;;;;5112912;28;20024;-84
2023/06/08 09:33:21;;;;;;;13.45;9.77;;;17.60;99.90;;;;;;5113533;28;20027;-85
2023/06/08 09:36:03;;;;;;;10.45;8.77;;;17.20;99.90;;;;;;5113841;28;20031;-84
2023/06/08 09:38:31;;;;;;;22.38;9.45;;;17.10;99.90;;;;;;5112805;28;20023;-84
2023/06/08 09:41:22;;;;;;;17.02;9.38;;;17.90;99.90;;;;;;5113465;28;20434;-85
2023/06/08 09:43:50;;;;;;;15.20;9.27;;;18.00;99.90;;;;;;5113094;28;20046;-85
2023/06/08 09:46:34;;;;;;;16.60;8.90;;;18.00;99.90;;;;;;5113468;28;20118;-84
2023/06/08 09:49:01;;;;;;;15.82;9.50;;;18.10;99.90;;;;;;5113386;28;20475;-84
2023/06/08 09:51:27;;;;;;;13.95;8.75;;;18.10;99.90;;;;;;5112713;28;20081;-84
2023/06/08 09:53:57;;;;;;;18.63;9.65;;;19.00;99.90;;;;;;5113287;28;20034;-84
2023/06/08 09:56:25;;;;;;;19.00;8.95;;;17.50;99.90;;;;;;5115235;28;20099;-85
2023/06/08 09:58:53;;;;;;;13.80;9.15;;;18.40;99.90;;;;;;5114535;28;20038;-84
2023/06/08 10:01:22;;;;;;;22.60;9.50;;;18.80;99.90;;;;;;5113636;28;20031;-85
2023/06/08 10:03:54;;;;;;;18.25;9.20;;;18.90;99.90;;;;;;5113479;28;20580;-84
2023/06/08 10:06:21;;;;;;;13.57;8.77;;;18.60;99.90;;;;;;5112643;28;20097;-84
2023/06/08 10:08:51;;;;;;;14.52;8.93;;;18.70;99.90;;;;;;5113436;28;20028;-84
2023/06/08 10:11:17;;;;;;;18.17;10.07;;;18.50;99.90;;;;;;5113383;28;20031;-84
2023/06/08 10:13:43;;;;;;;14.70;9.40;;;17.70;99.90;;;;;;5112500;28;20273;-84
2023/06/08 10:16:10;;;;;;;10.50;9.20;;;18.10;99.90;;;;;;5113355;28;20125;-83
2023/06/08 10:18:38;;;;;;;16.83;10.75;;;19.40;99.90;;;;;;5113034;28;20023;-83
2023/06/08 10:21:05;;;;;;;11.95;8.88;;;19.70;99.90;;;;;;5112254;28;20024;-84
2023/06/08 10:23:32;;;;;;;15.20;9.25;;;18.10;99.90;;;;;;5113518;28;20031;-83
2023/06/08 10:25:57;;;;;;;19.92;10.43;;;19.50;99.90;;;;;;5112511;28;20042;-84
2023/06/08 10:28:23;;;;;;;19.10;10.30;;;18.10;99.90;;;;;;5113043;28;20019;-84
2023/06/08 10:30:49;;;;;;;11.88;9.43;;;19.00;99.90;;;;;;5112949;28;20051;-84
2023/06/08 10:33:18;;;;;;;18.00;9.65;;;19.10;99.90;;;;;;5112085;28;20030;-85
2023/06/08 10:36:02;;;;;;;14.50;9.52;;;19.40;99.90;;;;;;5112913;28;20110;-85
2023/06/08 10:38:29;;;;;;;15.52;9.35;;;19.60;99.90;;;;;;5113008;28;20028;-85
2023/06/08 10:40:55;;;;;;;12.27;8.40;;;19.50;99.90;;;;;;5112170;28;20028;-85
2023/06/08 10:43:27;;;;;;;13.23;9.93;;;19.20;99.90;;;;;;5112785;28;20027;-85
2023/06/08 10:45:57;;;;;;;18.55;9.52;;;19.70;99.90;;;;;;5111474;28;20503;-85
2023/06/08 10:48:23;;;;;;;12.07;10.30;;;19.30;99.90;;;;;;5112266;28;20050;-85
2023/06/08 10:50:50;;;;;;;14.93;9.75;;;19.30;99.90;;;;;;5112522;28;20495;-85
2023/06/08 10:53:20;;;;;;;17.55;9.05;;;19.50;99.90;;;;;;5112829;28;20020;-84
2023/06/08 10:55:46;;;;;;;;;;;18.80;99.90;;;;;;5115733;28;20036;-84
2023/06/08 10:58:18;;;;;;;24.02;10.07;;;19.90;99.90;;;;;;5114127;28;20382;-85
2023/06/08 11:00:45;;;;;;;16.58;10.20;;;19.80;99.90;;;;;;5112773;28;20084;-85
2023/06/08 11:03:15;;;;;;;17.88;10.45;;;19.90;99.90;;;;;;5112295;28;20074;-85
2023/06/08 11:05:43;;;;;;;18.67;10.97;;;20.80;99.90;;;;;;5112893;28;20165;-85
2023/06/08 11:08:10;;;;;;;19.02;10.23;;;20.60;99.90;;;;;;5112315;28;20047;-85
2023/06/08 11:10:39;;;;;;;19.50;10.30;;;20.20;99.90;;;;;;5116334;28;20028;-85
2023/06/08 11:13:13;;;;;;;17.13;9.68;;;20.20;99.90;;;;;;5116190;28;20028;-85
2023/06/08 11:15:40;;;;;;;18.88;9.45;;;20.90;99.90;;;;;;5115657;28;20038;-85
2023/06/08 11:18:08;;;;;;;16.83;10.40;;;20.10;99.90;;;;;;5116084;28;20027;-84
2023/06/08 11:20:37;;;;;;;18.35;10.02;;;21.00;99.90;;;;;;5116213;28;20024;-85
2023/06/08 11:23:05;;;;;;;20.05;9.73;;;21.10;99.90;;;;;;5115389;28;20024;-84
2023/06/08 11:25:31;;;;;;;20.45;9.38;;;20.20;99.90;;;;;;5115873;28;20038;-85
2023/06/08 11:27:57;;;;;;;13.57;8.52;;;21.30;99.90;;;;;;5116211;28;20038;-85
2023/06/08 11:30:28;;;;;;;18.13;8.70;;;20.50;99.90;;;;;;5115199;28;20024;-85
2023/06/08 11:32:55;;;;;;;15.32;9.13;;;20.60;99.90;;;;;;5116123;28;20031;-85
2023/06/08 11:35:23;;;;;;;11.15;8.38;;;20.90;99.90;;;;;;5115930;28;20026;-84
2023/06/08 11:37:53;;;;;;;14.80;8.43;;;20.70;99.90;;;;;;5114998;28;20429;-85
2023/06/08 11:40:19;;;;;;;12.23;9.13;;;20.40;99.90;;;;;;5115786;28;20055;-85
2023/06/08 11:42:45;;;;;;;14.45;10.38;;;21.70;99.90;;;;;;5115889;28;20063;-85
2023/06/08 11:45:13;;;;;;;15.70;9.30;;;21.40;99.90;;;;;;5114767;28;20044;-85
2023/06/08 11:47:43;;;;;;;16.17;9.30;;;20.80;99.90;;;;;;5115528;27;20401;-85
2023/06/08 11:50:10;;;;;;;17.65;9.45;;;20.80;99.90;;;;;;5115448;28;20055;-85
2023/06/08 11:52:41;;;;;;;13.50;9.10;;;20.80;99.90;;;;;;5115629;28;20058;-85
2023/06/08 11:55:16;;;;;;;23.13;10.63;;;20.00;99.90;;;;;;5115731;28;20102;-85
2023/06/08 11:58:14;;;;;;;15.13;8.98;;;20.80;99.90;;;;;;5115191;27;20099;-85
2023/06/08 12:00:40;;;;;;;18.23;9.63;;;20.80;99.90;;;;;;5114006;28;20043;-85
2023/06/08 12:03:08;;;;;;;14.98;9.20;;;20.80;99.90;;;;;;5115218;28;20054;-85
2023/06/08 12:05:35;;;;;;;18.95;9.63;;;21.00;99.90;;;;;;5114707;28;20032;-85
2023/06/08 12:08:14;;;;;;;27.25;11.05;;;21.00;99.90;;;;;;5115365;27;20079;-85
2023/06/08 12:10:46;;;;;;;10.50;9.48;;;21.10;99.90;;;;;;5115192;28;20028;-85
2023/06/08 12:13:18;;;;;;;15.25;9.38;;;21.00;99.90;;;;;;5114259;28;20486;-84
2023/06/08 12:15:46;;;;;;;17.77;10.02;;;21.10;99.90;;;;;;5114993;28;20429;-84
2023/06/08 12:18:14;;;;;;;17.33;8.85;;;20.90;99.90;;;;;;5115070;28;20476;-84
2023/06/08 12:20:40;;;;;;;12.90;8.57;;;21.20;99.90;;;;;;5114117;28;20038;-84
2023/06/08 12:23:06;;;;;;;17.33;9.68;;;21.90;99.90;;;;;;5114927;28;20077;-85
2023/06/08 12:25:33;;;;;;;17.90;9.20;;;21.10;99.90;;;;;;5114187;28;20042;-85
2023/06/08 12:27:59;;;;;;;20.05;9.57;;;20.20;99.90;;;;;;5115123;28;20031;-84
2023/06/08 12:30:27;;;;;;;12.68;8.98;;;21.30;99.90;;;;;;5115094;28;20035;-84
2023/06/08 12:32:55;;;;;;;13.60;8.43;;;20.90;99.90;;;;;;5114367;28;20117;-85